Time;durP1;ratioP1;P1;durP2;ratioP2;P2;SDS_P1;SDS_P2;PMS_P1;PMS_P2;Temp;Humidity;BMP_temperature;BMP_pressure;BME280_temperature;BME280_humidity;BME280_pressure;Samples;Min_cycle;Max_cycle;Signal;HPM_P1;HPM_P2
2021/11/26 00:01:43;;;;;;;;;;;;;;;4.38;81.40;97193.19;1710764;82;26098;-83
2021/11/26 00:04:11;;;;;;;;;;;;;;;4.45;81.46;97195.75;1715170;82;25180;-84
2021/11/26 00:06:45;;;;;;;;;;;;;;;4.48;81.48;97194.25;1716901;82;20228;-84
2021/11/26 00:09:15;;;;;;;;;;;;;;;4.49;81.52;97195.91;1674901;83;24936;-84
2021/11/26 00:11:44;;;;;;;;;;;;;;;4.47;81.54;97195.17;1704472;82;21960;-84
2021/11/26 00:14:16;;;;;;;;;;;;;;;4.47;81.58;97202.94;1701007;82;26047;-84
2021/11/26 00:16:41;;;;;;;;;;;;;;;4.48;81.59;97201.19;1705772;82;24494;-84
2021/11/26 00:19:07;;;;;;;;;;;;;;;4.42;81.61;97189.95;1709462;81;20471;-84
2021/11/26 00:21:35;;;;;;;;;;;;;;;4.28;81.58;97183.52;1661893;84;24924;-84
2021/11/26 00:24:02;;;;;;;;;;;;;;;4.14;81.55;97173.61;1724434;82;22049;-84
2021/11/26 00:26:39;;;;;;;;;;;;;;;4.12;81.52;97174.16;1715142;82;26518;-84
2021/11/26 00:29:02;;;;;;;;;;;;;;;4.17;81.53;97169.98;1686407;82;24510;-84
2021/11/26 00:31:28;;;;;;;;;;;;;;;4.23;81.59;97165.70;1717202;82;20297;-84
2021/11/26 00:33:54;;;;;;;;;;;;;;;4.20;81.61;97171.89;1691529;83;20237;-84
2021/11/26 00:36:20;;;;;;;;;;;;;;;4.20;81.65;97165.88;1729757;82;22864;-84
2021/11/26 00:38:46;;;;;;;;;;;;;;;4.14;81.66;97159.38;1720365;82;25966;-84
2021/11/26 00:41:18;;;;;;;;;;;;;;;4.05;81.67;97147.45;1717607;82;20854;-84
2021/11/26 00:43:45;;;;;;;;;;;;;;;4.04;81.68;97148.38;1728647;82;20254;-83
2021/11/26 00:46:12;;;;;;;;;;;;;;;4.21;81.75;97142.95;1718925;82;24825;-84
2021/11/26 00:48:38;;;;;;;;;;;;;;;4.39;81.83;97136.58;1726052;82;21964;-84
2021/11/26 00:51:04;;;;;;;;;;;;;;;4.54;81.88;97132.97;1716311;82;26038;-83
2021/11/26 00:53:30;;;;;;;;;;;;;;;4.64;81.96;97118.46;1715502;82;20202;-84
2021/11/26 00:55:56;;;;;;;;;;;;;;;4.55;82.00;97118.26;1720346;81;20217;-84
2021/11/26 00:58:22;;;;;;;;;;;;;;;4.57;82.02;97106.05;1715244;82;24789;-84
2021/11/26 01:00:50;;;;;;;;;;;;;;;4.50;82.04;97101.73;1711718;82;20849;-84
2021/11/26 01:03:16;;;;;;;;;;;;;;;4.53;82.09;97113.17;1700126;82;26778;-84
2021/11/26 01:05:44;;;;;;;;;;;;;;;4.60;82.12;97123.50;1672899;83;24556;-84
2021/11/26 01:08:10;;;;;;;;;;;;;;;4.58;82.13;97131.83;1719058;82;20333;-84
2021/11/26 01:10:37;;;;;;;;;;;;;;;4.55;82.09;97130.75;1713072;82;20283;-83
2021/11/26 01:13:04;;;;;;;;;;;;;;;4.52;82.05;97137.91;1730463;81;22679;-84
2021/11/26 01:15:31;;;;;;;;;;;;;;;4.51;82.03;97137.07;1729966;81;26066;-83
2021/11/26 01:17:57;;;;;;;;;;;;;;;4.57;82.03;97135.84;1726379;82;24452;-83
2021/11/26 01:20:27;;;;;;;;;;;;;;;4.62;82.06;97136.36;1682880;82;20253;-84
2021/11/26 01:22:56;;;;;;;;;;;;;;;4.60;82.08;97133.86;1726216;82;24744;-84
2021/11/26 01:25:22;;;;;;;;;;;;;;;4.55;82.12;97128.16;1707787;82;21970;-84
2021/11/26 01:27:54;;;;;;;;;;;;;;;4.45;82.14;97124.52;1723913;81;26187;-84
2021/11/26 01:30:24;;;;;;;;;;;;;;;4.37;82.14;97126.77;1733440;81;20758;-84
2021/11/26 01:32:49;;;;;;;;;;;;;;;4.37;82.15;97128.07;1727713;81;20172;-83
2021/11/26 01:35:15;;;;;;;;;;;;;;;4.46;82.21;97126.65;1717558;82;24782;-83
2021/11/26 01:37:43;;;;;;;;;;;;;;;4.57;82.25;97117.23;1694425;83;20187;-84
2021/11/26 01:40:16;;;;;;;;;;;;;;;4.65;82.28;97123.19;1710142;82;26319;-84
2021/11/26 01:42:45;;;;;;;;;;;;;;;4.68;82.32;97113.92;1669998;83;21592;-84
2021/11/26 01:45:12;;;;;;;;;;;;;;;4.72;82.35;97114.54;1704278;82;20156;-84
2021/11/26 01:47:38;;;;;;;;;;;;;;;4.74;82.38;97113.98;1715782;82;24969;-84
2021/11/26 01:50:05;;;;;;;;;;;;;;;4.76;82.42;97118.11;1712924;82;22108;-84
2021/11/26 01:52:31;;;;;;;;;;;;;;;4.80;82.46;97110.48;1697770;82;26055;-84
2021/11/26 01:54:57;;;;;;;;;;;;;;;4.84;82.49;97100.75;1721097;82;24611;-85
2021/11/26 01:57:24;;;;;;;;;;;;;;;4.77;82.50;97082.66;1723195;80;20222;-85
2021/11/26 01:59:55;;;;;;;;;;;;;;;4.63;82.48;97088.80;1716305;82;25417;-84
2021/11/26 02:02:19;;;;;;;;;;;;;;;4.65;82.49;97088.20;1710977;82;22007;-84
2021/11/26 02:04:45;;;;;;;;;;;;;;;4.70;82.50;97081.41;1711626;82;26058;-83
2021/11/26 02:07:12;;;;;;;;;;;;;;;4.66;82.52;97076.08;1734565;82;24511;-83
2021/11/26 02:09:38;;;;;;;;;;;;;;;4.56;82.50;97083.19;1729850;81;20543;-84
2021/11/26 02:12:05;;;;;;;;;;;;;;;4.56;82.51;97078.47;1723331;81;24753;-84
2021/11/26 02:14:31;;;;;;;;;;;;;;;4.51;82.49;97073.61;1724829;81;22220;-84
2021/11/26 02:16:57;;;;;;;;;;;;;;;4.41;82.50;97064.80;1717376;82;26922;-83
2021/11/26 02:19:24;;;;;;;;;;;;;;;4.39;82.46;97061.94;1711342;82;24549;-84
2021/11/26 02:21:51;;;;;;;;;;;;;;;4.40;82.48;97055.83;1717715;82;20227;-83
2021/11/26 02:24:17;;;;;;;;;;;;;;;4.39;82.50;97044.64;1715626;82;24857;-84
2021/11/26 02:26:45;;;;;;;;;;;;;;;4.39;82.52;97052.41;1717102;82;22056;-84
2021/11/26 02:29:12;;;;;;;;;;;;;;;4.43;82.56;97053.85;1723191;82;26041;-84
2021/11/26 02:31:38;;;;;;;;;;;;;;;4.47;82.60;97051.41;1722772;81;24579;-84
2021/11/26 02:34:04;;;;;;;;;;;;;;;4.60;82.68;97041.05;1718543;82;20490;-84
2021/11/26 02:36:30;;;;;;;;;;;;;;;4.72;82.75;97041.52;1718978;82;24835;-84
2021/11/26 02:38:59;;;;;;;;;;;;;;;4.87;82.82;97041.75;1732905;81;23315;-84
2021/11/26 02:41:25;;;;;;;;;;;;;;;4.98;82.90;97044.89;1719997;82;25969;-84
2021/11/26 02:43:51;;;;;;;;;;;;;;;5.05;82.96;97052.15;1721176;81;20317;-84
2021/11/26 02:46:21;;;;;;;;;;;;;;;5.05;83.00;97045.67;1729925;81;20283;-84
2021/11/26 02:48:45;;;;;;;;;;;;;;;5.01;83.01;97044.70;1727182;81;24759;-84
2021/11/26 02:51:16;;;;;;;;;;;;;;;4.93;83.00;97030.96;1705183;82;22003;-84
2021/11/26 02:53:39;;;;;;;;;;;;;;;4.87;82.98;97027.50;1702194;82;26166;-84
2021/11/26 02:56:08;;;;;;;;;;;;;;;4.82;82.94;97021.80;1699388;82;24577;-84
2021/11/26 02:58:34;;;;;;;;;;;;;;;4.76;82.91;97018.34;1721243;82;20226;-84
2021/11/26 03:01:00;;;;;;;;;;;;;;;4.80;82.91;97017.19;1703477;82;24846;-84
2021/11/26 03:03:28;;;;;;;;;;;;;;;4.73;82.91;97001.72;1717385;82;22731;-84
2021/11/26 03:05:59;;;;;;;;;;;;;;;4.66;82.89;96996.59;1705784;82;26002;-84
2021/11/26 03:08:25;;;;;;;;;;;;;;;4.62;82.87;97008.94;1716528;82;24562;-84
2021/11/26 03:10:54;;;;;;;;;;;;;;;4.75;82.87;97006.77;1721037;82;20212;-84
2021/11/26 03:13:20;;;;;;;;;;;;;;;4.90;82.92;97012.21;1726754;82;25554;-84
2021/11/26 03:15:46;;;;;;;;;;;;;;;4.88;82.95;97005.00;1718607;82;22078;-84
2021/11/26 03:18:18;;;;;;;;;;;;;;;4.95;83.00;96990.69;1716872;82;26088;-84
2021/11/26 03:20:45;;;;;;;;;;;;;;;4.78;82.96;96973.72;1719237;82;24503;-84
2021/11/26 03:23:11;;;;;;;;;;;;;;;4.61;82.92;96960.64;1721192;82;20466;-84
2021/11/26 03:25:40;;;;;;;;;;;;;;;4.42;82.85;96969.31;1722993;81;24860;-84
2021/11/26 03:28:05;;;;;;;;;;;;;;;4.31;82.78;96980.86;1717570;82;21968;-85
2021/11/26 03:30:32;;;;;;;;;;;;;;;4.39;82.78;96985.07;1715859;82;20959;-85
2021/11/26 03:32:58;;;;;;;;;;;;;;;4.53;82.83;96990.59;1719540;82;24449;-84
2021/11/26 03:35:24;;;;;;;;;;;;;;;4.61;82.86;96984.42;1708261;82;20230;-84
2021/11/26 03:37:50;;;;;;;;;;;;;;;4.63;82.92;96983.86;1724358;82;24830;-84
2021/11/26 03:40:18;;;;;;;;;;;;;;;4.67;82.96;96976.23;1731969;82;22020;-84
2021/11/26 03:42:44;;;;;;;;;;;;;;;4.66;83.01;96973.73;1710498;82;26160;-84
2021/11/26 03:45:10;;;;;;;;;;;;;;;4.61;83.07;96958.05;1724749;81;24348;-84
2021/11/26 03:47:37;;;;;;;;;;;;;;;4.50;83.06;96952.78;1717809;82;20535;-84
2021/11/26 03:50:03;;;;;;;;;;;;;;;4.47;83.07;96956.87;1712189;82;24787;-84
2021/11/26 03:52:32;;;;;;;;;;;;;;;4.56;83.09;96954.95;1722483;82;21980;-84
2021/11/26 03:57:50;;;;;;;;;;;;;;;4.85;83.20;96943.02;1716478;82;25406;-83
2021/11/26 04:00:19;;;;;;;;;;;;;;;4.96;83.26;96938.70;1722322;82;20172;-83
2021/11/26 04:02:46;;;;;;;;;;;;;;;4.93;83.30;96932.92;1717833;82;25289;-83
2021/11/26 04:05:13;;;;;;;;;;;;;;;4.91;83.33;96927.05;1716608;82;22017;-83
2021/11/26 04:07:53;;;;;;;;;;;;;;;4.81;83.35;96920.83;1721897;82;26129;-83
2021/11/26 04:10:08;;;;;;;;;;;;;;;4.76;83.34;96921.16;1708368;82;24460;-83
2021/11/26 04:12:35;;;;;;;;;;;;;;;4.83;83.37;96926.74;1717711;82;20283;-83
2021/11/26 04:15:01;;;;;;;;;;;;;;;4.87;83.36;96933.36;1718461;82;24829;-84
2021/11/26 04:17:27;;;;;;;;;;;;;;;4.90;83.36;96932.69;1789268;78;22001;-83
2021/11/26 04:19:54;;;;;;;;;;;;;;;4.95;83.38;96934.95;1782126;79;26129;-83
2021/11/26 04:22:23;;;;;;;;;;;;;;;4.93;83.36;96928.57;1788658;79;25170;-83
2021/11/26 04:24:49;;;;;;;;;;;;;;;4.93;83.37;96931.63;1782497;78;20535;-83
2021/11/26 04:27:16;;;;;;;;;;;;;;;4.98;83.38;96933.42;1794088;79;24843;-83
2021/11/26 04:29:42;;;;;;;;;;;;;;;5.01;83.40;96924.15;1782649;79;22074;-83
2021/11/26 04:32:09;;;;;;;;;;;;;;;5.05;83.39;96926.41;1777411;79;26851;-83
2021/11/26 04:34:35;;;;;;;;;;;;;;;4.99;83.41;96927.30;1778339;79;24440;-83
2021/11/26 04:37:01;;;;;;;;;;;;;;;4.97;83.42;96930.00;1783023;79;20257;-83
2021/11/26 04:39:27;;;;;;;;;;;;;;;5.00;83.42;96922.48;1753986;79;24794;-83
2021/11/26 04:41:53;;;;;;;;;;;;;;;5.00;83.42;96919.89;1778966;79;20190;-83
2021/11/26 04:44:19;;;;;;;;;;;;;;;4.98;83.42;96916.58;1784612;79;26005;-83
2021/11/26 04:46:45;;;;;;;;;;;;;;;4.83;83.36;96913.32;1763792;79;24479;-83
2021/11/26 04:49:11;;;;;;;;;;;;;;;4.73;83.35;96905.84;1781437;79;20219;-83
2021/11/26 04:51:37;;;;;;;;;;;;;;;4.69;83.31;96910.06;1776064;79;25771;-83
2021/11/26 04:54:04;;;;;;;;;;;;;;;4.76;83.32;96907.37;1775988;79;22043;-83
2021/11/26 04:56:30;;;;;;;;;;;;;;;4.74;83.31;96906.67;1775518;79;26828;-83
2021/11/26 04:58:57;;;;;;;;;;;;;;;4.67;83.27;96901.55;1764393;79;23973;-83
2021/11/26 05:01:23;;;;;;;;;;;;;;;4.62;83.30;96898.83;1775101;78;20198;-83
2021/11/26 05:03:51;;;;;;;;;;;;;;;4.52;83.28;96900.88;1764275;79;24721;-84
2021/11/26 05:06:17;;;;;;;;;;;;;;;4.45;83.25;96903.06;1775864;79;22000;-84
2021/11/26 05:08:43;;;;;;;;;;;;;;;4.41;83.26;96887.39;1769453;79;26862;-83
2021/11/26 05:11:12;;;;;;;;;;;;;;;4.40;83.26;96884.44;1777717;79;24419;-84
2021/11/26 05:13:43;;;;;;;;;;;;;;;4.47;83.30;96886.13;1776471;79;20244;-84
2021/11/26 05:16:13;;;;;;;;;;;;;;;4.57;83.36;96882.78;1779362;79;24790;-84
2021/11/26 05:18:42;;;;;;;;;;;;;;;4.63;83.43;96887.54;1766447;79;22050;-85
2021/11/26 05:21:08;;;;;;;;;;;;;;;4.76;83.53;96882.29;1769560;79;26075;-85
2021/11/26 05:23:35;;;;;;;;;;;;;;;4.90;83.60;96882.61;1778467;79;20293;-85
2021/11/26 05:26:00;;;;;;;;;;;;;;;5.03;83.66;96875.59;1781100;79;20571;-85
2021/11/26 05:28:27;;;;;;;;;;;;;;;5.11;83.70;96871.98;1786249;79;20237;-85
2021/11/26 05:30:53;;;;;;;;;;;;;;;5.16;83.73;96869.88;1786213;78;22090;-85
2021/11/26 05:33:19;;;;;;;;;;;;;;;5.11;83.76;96859.48;1776835;79;26009;-85
2021/11/26 05:35:45;;;;;;;;;;;;;;;4.95;83.73;96861.08;1777168;79;25801;-85
2021/11/26 05:38:13;;;;;;;;;;;;;;;4.85;83.72;96870.45;1784191;79;20477;-85
2021/11/26 05:40:39;;;;;;;;;;;;;;;4.85;83.71;96865.27;1757852;79;24667;-85
2021/11/26 05:43:05;;;;;;;;;;;;;;;4.83;83.71;96865.38;1784173;79;20214;-85
2021/11/26 05:45:31;;;;;;;;;;;;;;;4.93;83.74;96864.23;1783807;79;21166;-85
2021/11/26 05:47:57;;;;;;;;;;;;;;;5.05;83.76;96867.24;1780988;79;24072;-85
2021/11/26 05:50:23;;;;;;;;;;;;;;;5.14;83.76;96865.73;1765799;79;20241;-85
2021/11/26 05:52:49;;;;;;;;;;;;;;;5.19;83.79;96867.05;1779294;79;24969;-85
2021/11/26 05:55:22;;;;;;;;;;;;;;;5.26;83.81;96864.38;1769585;78;21955;-85
2021/11/26 05:57:48;;;;;;;;;;;;;;;5.29;83.80;96868.02;1760264;79;26059;-85
2021/11/26 06:00:15;;;;;;;;;;;;;;;5.34;83.82;96859.93;1789675;79;24618;-85
2021/11/26 06:02:43;;;;;;;;;;;;;;;5.34;83.84;96854.27;1785860;79;20282;-85
2021/11/26 06:05:09;;;;;;;;;;;;;;;5.20;83.84;96857.04;1780151;79;25349;-85
2021/11/26 06:07:35;;;;;;;;;;;;;;;5.05;83.86;96852.52;1778275;79;21113;-85
2021/11/26 06:10:03;;;;;;;;;;;;;;;4.94;83.82;96854.23;1784844;79;26319;-86
2021/11/26 06:12:29;;;;;;;;;;;;;;;4.81;83.82;96846.50;1783167;78;24520;-85
2021/11/26 06:14:55;;;;;;;;;;;;;;;4.73;83.79;96841.53;1775050;79;20325;-86
2021/11/26 06:17:21;;;;;;;;;;;;;;;4.64;83.77;96849.47;1772403;79;20277;-85
2021/11/26 06:19:47;;;;;;;;;;;;;;;4.62;83.77;96849.61;1726815;81;22772;-85
2021/11/26 06:22:14;;;;;;;;;;;;;;;4.72;83.81;96849.77;1743838;79;26037;-86
2021/11/26 06:24:43;;;;;;;;;;;;;;;4.91;83.88;96851.38;1728783;79;24512;-85
2021/11/26 06:27:08;;;;;;;;;;;;;;;5.06;83.96;96846.87;1769877;79;20249;-85
2021/11/26 06:29:34;;;;;;;;;;;;;;;5.14;84.00;96849.70;1773423;79;20533;-85
2021/11/26 06:32:03;;;;;;;;;;;;;;;5.18;84.08;96849.86;1775059;79;22793;-85
2021/11/26 06:34:33;;;;;;;;;;;;;;;5.20;84.16;96845.37;1780646;79;26035;-85
2021/11/26 06:36:57;;;;;;;;;;;;;;;5.15;84.19;96847.48;1761887;79;24501;-85
2021/11/26 06:39:27;;;;;;;;;;;;;;;5.05;84.25;96840.85;1778699;78;20167;-85
2021/11/26 06:41:51;;;;;;;;;;;;;;;4.94;84.23;96834.33;1782669;79;25479;-85
2021/11/26 06:44:17;;;;;;;;;;;;;;;4.82;84.20;96835.67;1776490;79;22103;-85
2021/11/26 06:46:43;;;;;;;;;;;;;;;4.74;84.15;96831.06;1780727;79;26597;-85
2021/11/26 06:49:09;;;;;;;;;;;;;;;4.63;84.13;96829.24;1780443;79;24435;-86
2021/11/26 06:51:35;;;;;;;;;;;;;;;4.55;84.11;96832.00;1785657;79;20208;-85
2021/11/26 06:54:02;;;;;;;;;;;;;;;4.44;84.07;96829.34;1748419;79;20837;-85
2021/11/26 06:56:28;;;;;;;;;;;;;;;4.39;84.05;96823.67;1780256;79;22080;-85
2021/11/26 06:58:58;;;;;;;;;;;;;;;4.39;84.08;96824.97;1774220;79;21154;-85
2021/11/26 07:01:22;;;;;;;;;;;;;;;4.44;84.13;96825.00;1779242;78;25305;-85
2021/11/26 07:03:51;;;;;;;;;;;;;;;4.44;84.19;96828.05;1783387;79;20912;-86
2021/11/26 07:06:21;;;;;;;;;;;;;;;4.46;84.26;96830.91;1761569;79;24872;-85
2021/11/26 07:08:47;;;;;;;;;;;;;;;4.58;84.33;96822.24;1788509;79;22070;-85
2021/11/26 07:11:13;;;;;;;;;;;;;;;4.68;84.46;96814.66;1781336;79;26860;-86
2021/11/26 07:13:39;;;;;;;;;;;;;;;4.66;84.51;96809.22;1778261;78;24485;-85
2021/11/26 07:16:05;;;;;;;;;;;;;;;4.58;84.55;96805.41;1779420;79;20230;-85
2021/11/26 07:18:34;;;;;;;;;;;;;;;4.53;84.58;96802.78;1777557;79;24341;-86
2021/11/26 07:21:02;;;;;;;;;;;;;;;4.51;84.60;96799.03;1774956;79;22145;-86
2021/11/26 07:23:30;;;;;;;;;;;;;;;4.50;84.61;96797.84;1733248;79;21386;-85
2021/11/26 07:25:56;;;;;;;;;;;;;;;4.50;84.64;96793.95;1760772;79;25367;-87
2021/11/26 07:28:24;;;;;;;;;;;;;;;4.47;84.67;96789.80;1788569;79;20328;-85
2021/11/26 07:30:53;;;;;;;;;;;;;;;4.46;84.71;96788.17;1777849;79;24821;-85
2021/11/26 07:33:19;;;;;;;;;;;;;;;4.46;84.73;96786.05;1767851;79;22120;-85
2021/11/26 07:35:45;;;;;;;;;;;;;;;4.53;84.80;96788.07;1781827;79;21134;-85
2021/11/26 07:38:11;;;;;;;;;;;;;;;4.60;84.88;96778.93;1777532;79;20226;-85
2021/11/26 07:40:37;;;;;;;;;;;;;;;4.64;84.96;96780.35;1772170;79;20261;-85
2021/11/26 07:43:03;;;;;;;;;;;;;;;4.69;85.02;96780.02;1793335;79;24792;-85
2021/11/26 07:45:29;;;;;;;;;;;;;;;4.69;85.09;96781.31;1781475;79;20823;-85
2021/11/26 07:47:55;;;;;;;;;;;;;;;4.76;85.13;96778.64;1783035;79;26059;-85
2021/11/26 07:50:21;;;;;;;;;;;;;;;4.84;85.18;96781.51;1785627;79;20238;-85
2021/11/26 07:52:47;;;;;;;;;;;;;;;4.82;85.23;96777.36;1775066;79;20155;-85
2021/11/26 07:55:15;;;;;;;;;;;;;;;4.75;85.23;96776.15;1770449;79;24723;-85
2021/11/26 07:57:42;;;;;;;;;;;;;;;4.64;85.22;96772.58;1781803;79;21901;-85
2021/11/26 08:00:09;;;;;;;;;;;;;;;4.61;85.23;96770.22;1776788;78;26237;-85
2021/11/26 08:02:35;;;;;;;;;;;;;;;4.59;85.21;96774.68;1784953;79;24309;-85
2021/11/26 08:05:01;;;;;;;;;;;;;;;4.61;85.21;96764.22;1737398;79;20534;-85
2021/11/26 08:07:27;;;;;;;;;;;;;;;4.58;85.24;96763.16;1725501;81;24925;-85
2021/11/26 08:09:53;;;;;;;;;;;;;;;4.53;85.24;96758.28;1787121;79;21992;-85
2021/11/26 08:12:22;;;;;;;;;;;;;;;4.52;85.23;96752.77;1774156;79;21857;-85
2021/11/26 08:14:51;;;;;;;;;;;;;;;4.49;85.24;96742.61;1782586;79;24626;-85
2021/11/26 08:17:22;;;;;;;;;;;;;;;4.45;85.23;96737.30;1782975;79;20222;-85
2021/11/26 08:19:45;;;;;;;;;;;;;;;4.39;85.24;96735.62;1767133;79;25134;-85
2021/11/26 08:22:12;;;;;;;;;;;;;;;4.23;85.23;96729.89;1749473;79;21947;-85
2021/11/26 08:24:39;;;;;;;;;;;;;;;4.13;85.19;96723.26;1778129;79;26058;-85
2021/11/26 08:27:05;;;;;;;;;;;;;;;4.16;85.20;96721.73;1786592;79;24522;-85
2021/11/26 08:29:31;;;;;;;;;;;;;;;4.15;85.25;96714.43;1784205;79;20235;-85
2021/11/26 08:31:58;;;;;;;;;;;;;;;4.12;85.28;96713.84;1775215;78;24987;-85
2021/11/26 08:34:24;;;;;;;;;;;;;;;4.04;85.28;96711.78;1778322;79;21980;-85
2021/11/26 08:36:51;;;;;;;;;;;;;;;4.00;85.30;96710.82;1753960;79;20915;-85
2021/11/26 08:39:16;;;;;;;;;;;;;;;4.02;85.33;96708.50;1774041;78;25371;-85
2021/11/26 08:41:42;;;;;;;;;;;;;;;3.99;85.39;96709.99;1772722;78;20749;-85
2021/11/26 08:44:09;;;;;;;;;;;;;;;3.98;85.43;96697.98;1777184;79;20289;-85
2021/11/26 08:46:35;;;;;;;;;;;;;;;4.03;85.52;96695.92;1751373;79;22125;-85
2021/11/26 08:49:01;;;;;;;;;;;;;;;4.09;85.62;96690.28;1733337;82;21159;-85
2021/11/26 08:51:33;;;;;;;;;;;;;;;4.06;85.68;96687.92;1769483;78;24405;-85
2021/11/26 08:53:57;;;;;;;;;;;;;;;4.06;85.75;96685.80;1751213;79;20203;-85
2021/11/26 08:56:25;;;;;;;;;;;;;;;4.06;85.82;96685.33;1787757;79;24783;-85
2021/11/26 08:59:00;;;;;;;;;;;;;;;4.08;85.89;96680.89;1764924;79;20463;-85
2021/11/26 09:01:28;;;;;;;;;;;;;;;4.12;85.97;96677.13;1777980;79;26144;-85
2021/11/26 09:03:54;;;;;;;;;;;;;;;4.06;86.06;96670.27;1788965;79;24456;-85
2021/11/26 09:06:20;;;;;;;;;;;;;;;4.08;86.13;96665.82;1780132;79;20309;-85
2021/11/26 09:08:47;;;;;;;;;;;;;;;4.08;86.18;96660.64;1788537;79;24978;-85
2021/11/26 09:11:14;;;;;;;;;;;;;;;4.00;86.23;96656.01;1780841;79;22186;-85
2021/11/26 09:13:40;;;;;;;;;;;;;;;3.95;86.28;96661.16;1772247;79;26029;-85
2021/11/26 09:16:06;;;;;;;;;;;;;;;3.93;86.31;96657.88;1773171;79;24538;-85
2021/11/26 09:18:32;;;;;;;;;;;;;;;3.91;86.35;96649.38;1783298;79;20203;-85
2021/11/26 09:20:59;;;;;;;;;;;;;;;3.92;86.42;96651.03;1764139;79;24994;-85
2021/11/26 09:23:25;;;;;;;;;;;;;;;3.87;86.47;96638.91;1770762;79;21992;-84
2021/11/26 09:25:55;;;;;;;;;;;;;;;3.81;86.52;96634.99;1775661;79;21327;-85
2021/11/26 09:28:21;;;;;;;;;;;;;;;3.79;86.56;96640.73;1781706;79;24423;-85
2021/11/26 09:30:52;;;;;;;;;;;;;;;3.79;86.64;96636.39;1778920;79;20273;-85
2021/11/26 09:33:16;;;;;;;;;;;;;;;3.85;86.70;96626.53;1729199;79;25386;-85
2021/11/26 09:35:52;;;;;;;;;;;;;;;3.89;86.79;96629.25;1777322;78;21967;-85
2021/11/26 09:38:18;;;;;;;;;;;;;;;3.89;86.85;96625.36;1756594;79;26048;-86
2021/11/26 09:40:45;;;;;;;;;;;;;;;3.97;86.98;96629.53;1774636;79;24505;-85
2021/11/26 09:43:11;;;;;;;;;;;;;;;3.94;87.06;96627.15;1784520;79;20215;-86
2021/11/26 09:45:38;;;;;;;;;;;;;;;3.90;87.12;96621.84;1767690;79;24763;-85
2021/11/26 09:48:04;;;;;;;;;;;;;;;3.92;87.20;96614.81;1772770;79;23065;-85
2021/11/26 09:50:32;;;;;;;;;;;;;;;3.94;87.27;96603.39;1776389;79;26676;-85
2021/11/26 09:53:09;;;;;;;;;;;;;;;3.91;87.34;96598.45;1765326;79;24563;-85
2021/11/26 09:55:36;;;;;;;;;;;;;;;3.91;87.39;96595.87;1734531;81;20157;-85
2021/11/26 09:58:02;;;;;;;;;;;;;;;3.95;87.47;96595.16;1764101;79;24755;-85
2021/11/26 10:00:31;;;;;;;;;;;;;;;3.98;87.52;96589.29;1781042;79;20284;-85
2021/11/26 10:02:58;;;;;;;;;;;;;;;4.03;87.60;96579.92;1770862;79;26139;-85
2021/11/26 10:05:24;;;;;;;;;;;;;;;4.05;87.70;96575.44;1776275;79;25219;-86
2021/11/26 10:07:52;;;;;;;;;;;;;;;4.01;87.74;96570.14;1751791;79;20382;-86
2021/11/26 10:10:20;;;;;;;;;;;;;;;4.06;87.79;96566.27;1779593;79;24928;-85
2021/11/26 10:13:00;;;;;;;;;;;;;;;4.04;87.86;96564.25;1781248;79;21999;-85
2021/11/26 10:15:33;;;;;;;;;;;;;;;3.99;87.89;96563.77;1779617;78;26107;-85
2021/11/26 10:18:14;;;;;;;;;;;;;;;3.93;87.95;96553.07;1755466;79;24426;-86
2021/11/26 10:20:52;;;;;;;;;;;;;;;3.89;87.94;96551.62;1785062;78;20255;-86
2021/11/26 10:23:19;;;;;;;;;;;;;;;3.85;87.98;96541.98;1749948;79;24784;-85
2021/11/26 10:25:45;;;;;;;;;;;;;;;3.85;88.01;96532.92;1770560;79;21978;-85
2021/11/26 10:28:11;;;;;;;;;;;;;;;3.85;88.05;96529.04;1766143;79;25976;-86
2021/11/26 10:30:39;;;;;;;;;;;;;;;3.83;88.07;96521.84;1757949;79;25376;-86
2021/11/26 10:33:25;;;;;;;;;;;;;;;3.79;88.12;96521.73;1782317;79;20226;-86
2021/11/26 10:35:55;;;;;;;;;;;;;;;3.81;88.15;96516.45;1750430;81;20266;-85
2021/11/26 10:38:23;;;;;;;;;;;;;;;3.83;88.22;96511.97;1740409;81;22669;-85
2021/11/26 10:40:52;;;;;;;;;;;;;;;3.85;88.27;96512.22;1691432;82;26236;-85
2021/11/26 10:43:33;;;;;;;;;;;;;;;3.93;88.35;96506.00;1726105;81;24533;-86
2021/11/26 10:48:48;;;;;;;;;;;;;;;3.91;88.49;96496.72;1732482;81;25489;-85
2021/11/26 10:51:19;;;;;;;;;;;;;;;3.87;88.53;96492.72;1677369;84;22184;-85
2021/11/26 10:58:51;;;;;;;;;;;;;;;3.87;88.60;96484.48;1742357;81;20478;-86
2021/11/26 11:01:17;;;;;;;;;;;;;;;3.91;88.65;96478.13;1714332;81;24930;-86
2021/11/26 11:03:44;;;;;;;;;;;;;;;3.90;88.70;96471.30;1784253;79;22018;-86
2021/11/26 11:06:17;;;;;;;;;;;;;;;3.89;88.72;96463.18;1780117;79;26149;-85
2021/11/26 11:08:43;;;;;;;;;;;;;;;3.95;88.76;96462.73;1794732;79;24428;-86
2021/11/26 11:11:09;;;;;;;;;;;;;;;3.95;88.79;96451.08;1782357;79;20394;-86
2021/11/26 11:13:36;;;;;;;;;;;;;;;3.96;88.85;96449.33;1778388;79;25592;-86
2021/11/26 11:16:09;;;;;;;;;;;;;;;3.93;88.87;96445.19;1781725;79;20175;-86
2021/11/26 11:18:34;;;;;;;;;;;;;;;3.83;88.88;96444.23;1778724;79;26097;-85
2021/11/26 11:21:07;;;;;;;;;;;;;;;3.86;88.88;96439.31;1777433;79;24474;-85
2021/11/26 11:23:37;;;;;;;;;;;;;;;3.89;88.90;96429.55;1775766;79;20262;-85
2021/11/26 11:26:03;;;;;;;;;;;;;;;3.86;88.93;96416.85;1755117;78;24869;-86
2021/11/26 11:28:29;;;;;;;;;;;;;;;3.94;88.98;96418.84;1789619;79;22056;-85
2021/11/26 11:30:56;;;;;;;;;;;;;;;3.99;89.03;96411.09;1772276;78;25950;-86
2021/11/26 11:33:23;;;;;;;;;;;;;;;4.05;89.07;96405.45;1774769;79;24452;-85
2021/11/26 11:35:50;;;;;;;;;;;;;;;4.07;89.11;96404.88;1771913;79;20494;-86
2021/11/26 11:38:17;;;;;;;;;;;;;;;4.05;89.14;96393.80;1778555;79;25001;-85
2021/11/26 11:40:47;;;;;;;;;;;;;;;4.04;89.14;96397.33;1776128;78;21981;-85
2021/11/26 11:43:21;;;;;;;;;;;;;;;3.95;89.14;96386.39;1788444;79;26083;-85
2021/11/26 11:45:55;;;;;;;;;;;;;;;3.91;89.13;96385.45;1782785;79;23883;-86
2021/11/26 11:48:27;;;;;;;;;;;;;;;3.92;89.14;96376.76;1765756;79;20252;-86
2021/11/26 11:50:53;;;;;;;;;;;;;;;3.92;89.14;96376.76;1776698;79;24609;-86
2021/11/26 11:53:36;;;;;;;;;;;;;;;3.94;89.13;96368.39;1790084;78;22972;-86
2021/11/26 11:56:09;;;;;;;;;;;;;;;3.94;89.16;96360.16;1776067;79;26253;-86
2021/11/26 11:58:42;;;;;;;;;;;;;;;3.92;89.17;96361.23;1777202;79;24537;-86
2021/11/26 12:01:11;;;;;;;;;;;;;;;3.93;89.19;96349.45;1788090;78;20437;-86
2021/11/26 12:03:37;;;;;;;;;;;;;;;3.91;89.19;96344.88;1778633;78;25128;-86
2021/11/26 12:06:04;;;;;;;;;;;;;;;3.93;89.21;96344.77;1776265;79;22250;-86
2021/11/26 12:08:31;;;;;;;;;;;;;;;3.93;89.23;96344.27;1759248;79;25216;-86
2021/11/26 12:10:59;;;;;;;;;;;;;;;3.97;89.27;96333.23;1780510;79;24445;-86
2021/11/26 12:13:34;;;;;;;;;;;;;;;4.01;89.29;96333.34;1779112;79;20268;-85
2021/11/26 12:16:14;;;;;;;;;;;;;;;4.06;89.36;96330.75;1776441;79;24834;-86
2021/11/26 12:18:42;;;;;;;;;;;;;;;4.10;89.40;96327.45;1778547;78;21858;-86
2021/11/26 12:21:08;;;;;;;;;;;;;;;4.13;89.43;96324.17;1781973;79;25985;-86
2021/11/26 12:23:52;;;;;;;;;;;;;;;4.20;89.48;96319.31;1792419;78;25470;-85
2021/11/26 12:26:30;;;;;;;;;;;;;;;4.29;89.54;96319.91;1769486;79;20282;-85
2021/11/26 12:28:53;;;;;;;;;;;;;;;4.46;89.61;96320.70;1788683;79;24688;-85
2021/11/26 12:31:33;;;;;;;;;;;;;;;4.52;89.67;96313.74;1779783;79;22102;-85
2021/11/26 12:34:04;;;;;;;;;;;;;;;4.56;89.76;96311.25;1758183;79;26008;-86
2021/11/26 12:36:38;;;;;;;;;;;;;;;4.59;89.77;96304.98;1733340;81;24432;-86
2021/11/26 12:39:06;;;;;;;;;;;;;;;4.60;89.83;96295.80;1777331;79;20166;-85
2021/11/26 12:41:37;;;;;;;;;;;;;;;4.66;89.84;96291.08;1783793;79;24787;-86
2021/11/26 12:44:04;;;;;;;;;;;;;;;4.72;89.86;96291.88;1759637;79;21937;-86
2021/11/26 12:46:32;;;;;;;;;;;;;;;4.72;89.84;96284.94;1764096;79;26825;-86
2021/11/26 12:51:40;;;;;;;;;;;;;;;4.65;89.85;96285.07;1755026;79;20201;-86
2021/11/26 12:54:07;;;;;;;;;;;;;;;4.66;89.83;96289.78;1724395;82;24841;-86
2021/11/26 12:56:35;;;;;;;;;;;;;;;4.66;89.83;96288.48;1719456;81;22899;-86
2021/11/26 12:59:02;;;;;;;;;;;;;;;4.71;89.79;96282.46;1697127;83;26066;-86
2021/11/26 13:01:31;;;;;;;;;;;;;;;4.79;89.83;96274.44;1783522;79;24475;-85
2021/11/26 13:03:56;;;;;;;;;;;;;;;4.77;89.81;96271.61;1777035;79;20466;-85
2021/11/26 13:06:23;;;;;;;;;;;;;;;4.75;89.81;96269.13;1737301;79;24824;-85
2021/11/26 13:08:59;;;;;;;;;;;;;;;4.70;89.81;96269.98;1778973;79;21997;-85
2021/11/26 13:11:25;;;;;;;;;;;;;;;4.54;89.72;96263.92;1767840;79;26084;-85
2021/11/26 13:14:00;;;;;;;;;;;;;;;4.46;89.68;96261.14;1740052;80;21526;-86